createdAt,value
2017-12-28T00:00:53.097Z,982.19
2017-12-28T00:02:03.053Z,982.18
2017-12-28T00:03:13.019Z,982.09
2017-12-28T00:04:22.959Z,982.07
2017-12-28T00:05:32.898Z,982.05
2017-12-28T00:06:42.586Z,982.03
2017-12-28T00:07:52.273Z,982.03
2017-12-28T00:09:02.235Z,982.03
2017-12-28T00:10:11.953Z,982
2017-12-28T00:11:21.907Z,982.01
2017-12-28T00:12:31.590Z,982.02
2017-12-28T00:13:41.277Z,982.01
2017-12-28T00:14:50.970Z,981.98
2017-12-28T00:16:00.913Z,981.99
2017-12-28T00:17:10.871Z,981.93
2017-12-28T00:18:20.812Z,981.95
2017-12-28T00:19:30.799Z,982.01
2017-12-28T00:20:40.516Z,981.94
2017-12-28T00:21:50.190Z,981.98
2017-12-28T00:22:59.617Z,981.96
2017-12-28T00:24:09.567Z,981.95
2017-12-28T00:25:19.512Z,981.91
2017-12-28T00:26:29.449Z,981.92
2017-12-28T00:27:39.407Z,981.94
2017-12-28T00:28:49.102Z,981.94
2017-12-28T00:29:59.045Z,981.92
2017-12-28T00:31:08.978Z,981.85
2017-12-28T00:32:18.658Z,981.85
2017-12-28T00:33:28.618Z,981.82
2017-12-28T00:34:38.623Z,981.81
2017-12-28T00:35:48.566Z,981.78
2017-12-28T00:36:58.505Z,981.84
2017-12-28T00:38:08.433Z,981.87
2017-12-28T00:39:18.371Z,981.92
2017-12-28T00:40:28.076Z,981.89
2017-12-28T00:41:37.775Z,981.92
2017-12-28T00:42:47.787Z,981.9
2017-12-28T00:43:57.761Z,981.96
2017-12-28T00:45:07.705Z,981.98
2017-12-28T00:46:17.652Z,981.98
2017-12-28T00:47:27.591Z,981.97
2017-12-28T00:48:37.532Z,981.99
2017-12-28T00:49:47.469Z,982
2017-12-28T00:50:57.410Z,982.03
2017-12-28T00:52:07.094Z,982.02
2017-12-28T00:53:17.034Z,982.07
2017-12-28T00:54:26.723Z,982.07
2017-12-28T00:55:36.670Z,982.09
2017-12-28T00:56:46.604Z,982.12
2017-12-28T00:57:56.291Z,982.12
2017-12-28T00:59:05.978Z,982.11
2017-12-28T01:00:15.913Z,982.12
2017-12-28T01:01:25.599Z,982.12
2017-12-28T01:02:35.579Z,982.13
2017-12-28T01:03:45.284Z,982.11
2017-12-28T01:04:55.225Z,982.1
2017-12-28T01:06:05.201Z,982.13
2017-12-28T01:07:14.894Z,982.16
2017-12-28T01:08:24.833Z,982.19
2017-12-28T01:09:34.774Z,982.17
2017-12-28T01:10:44.717Z,982.17
2017-12-28T01:11:54.683Z,982.16
2017-12-28T01:13:04.630Z,982.24
2017-12-28T01:14:14.362Z,982.26
2017-12-28T01:15:24.303Z,982.29
2017-12-28T01:16:34.254Z,982.29
2017-12-28T01:17:44.189Z,982.32
2017-12-28T01:18:54.134Z,982.41
2017-12-28T01:20:03.826Z,982.42
2017-12-28T01:21:13.773Z,982.38
2017-12-28T01:22:23.465Z,982.41
2017-12-28T01:23:33.419Z,982.37
2017-12-28T01:24:43.359Z,982.36
2017-12-28T01:25:53.306Z,982.37
2017-12-28T01:27:03.250Z,982.32
2017-12-28T01:28:13.206Z,982.36
2017-12-28T01:29:23.599Z,982.35
2017-12-28T01:30:33.546Z,982.33
2017-12-28T01:31:43.487Z,982.32
2017-12-28T01:32:52.930Z,982.34
2017-12-28T01:34:02.869Z,982.34
2017-12-28T01:35:12.818Z,982.32
2017-12-28T01:36:22.502Z,982.29
2017-12-28T01:37:32.460Z,982.32
2017-12-28T01:38:42.137Z,982.34
2017-12-28T01:39:52.089Z,982.32
2017-12-28T01:41:02.040Z,982.35
2017-12-28T01:42:11.967Z,982.34
2017-12-28T01:43:21.909Z,982.29
2017-12-28T01:44:31.853Z,982.32
2017-12-28T01:45:41.787Z,982.32
2017-12-28T01:46:51.527Z,982.41
2017-12-28T01:48:01.215Z,982.41
2017-12-28T01:49:11.151Z,982.45
2017-12-28T01:50:21.101Z,982.42
2017-12-28T01:51:31.075Z,982.38
2017-12-28T01:52:41.022Z,982.32
2017-12-28T01:53:50.966Z,982.36
2017-12-28T01:55:00.898Z,982.41
2017-12-28T01:56:10.825Z,982.39
2017-12-28T01:57:20.759Z,982.35
2017-12-28T01:58:30.231Z,982.39
2017-12-28T01:59:39.914Z,982.38
2017-12-28T02:00:49.859Z,982.41
2017-12-28T02:01:59.808Z,982.37
2017-12-28T02:03:09.762Z,982.4
2017-12-28T02:04:19.711Z,982.36
2017-12-28T02:05:29.665Z,982.41
2017-12-28T02:06:39.600Z,982.39
2017-12-28T02:07:49.540Z,982.37
2017-12-28T02:08:59.489Z,982.39
2017-12-28T02:10:08.922Z,982.38
2017-12-28T02:11:18.615Z,982.36
2017-12-28T02:12:27.784Z,982.38
2017-12-28T02:13:37.737Z,982.43
2017-12-28T02:14:47.428Z,982.38
2017-12-28T02:15:57.120Z,982.39
2017-12-28T02:17:06.556Z,982.41
2017-12-28T02:18:16.499Z,982.42
2017-12-28T02:19:26.442Z,982.45
2017-12-28T02:20:36.384Z,982.4
2017-12-28T02:21:45.820Z,982.45
2017-12-28T02:22:55.753Z,982.47
2017-12-28T02:24:05.693Z,982.43
2017-12-28T02:25:15.372Z,982.4
2017-12-28T02:26:25.318Z,982.38
2017-12-28T02:27:35.264Z,982.39
2017-12-28T02:28:44.957Z,982.35
2017-12-28T02:29:54.394Z,982.39
2017-12-28T02:31:03.822Z,982.41
2017-12-28T02:32:13.510Z,982.38
2017-12-28T02:33:23.463Z,982.41
2017-12-28T02:34:33.404Z,982.37
2017-12-28T02:35:43.337Z,982.39
2017-12-28T02:36:53.278Z,982.43
2017-12-28T02:38:03.229Z,982.48
2017-12-28T02:39:13.175Z,982.45
2017-12-28T02:40:22.857Z,982.51
2017-12-28T02:41:32.810Z,982.54
2017-12-28T02:42:42.765Z,982.51
2017-12-28T02:43:52.452Z,982.44
2017-12-28T02:45:02.409Z,982.37
2017-12-28T02:46:12.356Z,982.41
2017-12-28T02:47:22.316Z,982.35
2017-12-28T02:48:31.766Z,982.33
2017-12-28T02:49:41.719Z,982.3
2017-12-28T02:50:51.672Z,982.3
2017-12-28T02:52:01.610Z,982.27
2017-12-28T02:53:11.306Z,982.26
2017-12-28T02:54:20.734Z,982.35
2017-12-28T02:55:30.423Z,982.3
2017-12-28T02:56:40.389Z,982.37
2017-12-28T02:57:50.086Z,982.38
2017-12-28T02:58:59.770Z,982.35
2017-12-28T03:00:09.471Z,982.43
2017-12-28T03:01:19.416Z,982.5
2017-12-28T03:02:29.360Z,982.46
2017-12-28T03:03:39.300Z,982.5
2017-12-28T03:04:49.241Z,982.54
2017-12-28T03:05:59.178Z,982.5
2017-12-28T03:07:09.184Z,982.52
2017-12-28T03:08:19.195Z,982.49
2017-12-28T03:09:29.132Z,982.48
2017-12-28T03:10:39.075Z,982.46
2017-12-28T03:11:49.017Z,982.39
2017-12-28T03:12:58.949Z,982.38
2017-12-28T03:14:08.626Z,982.37
2017-12-28T03:15:18.315Z,982.36
2017-12-28T03:16:28.246Z,982.35
2017-12-28T03:17:38.199Z,982.33
2017-12-28T03:18:47.873Z,982.3
2017-12-28T03:19:57.560Z,982.35
2017-12-28T03:21:07.551Z,982.35
2017-12-28T03:22:17.489Z,982.36
2017-12-28T03:23:27.431Z,982.34
2017-12-28T03:24:37.372Z,982.34
2017-12-28T03:25:47.319Z,982.43
2017-12-28T03:26:57.010Z,982.5
2017-12-28T03:28:06.956Z,982.56
2017-12-28T03:29:16.886Z,982.5
2017-12-28T03:30:26.829Z,982.52
2017-12-28T03:31:36.802Z,982.51
2017-12-28T03:32:46.736Z,982.57
2017-12-28T03:33:56.679Z,982.56
2017-12-28T03:35:06.363Z,982.49
2017-12-28T03:36:16.300Z,982.56
2017-12-28T03:37:26.010Z,982.48
2017-12-28T03:38:35.949Z,982.49
2017-12-28T03:39:45.878Z,982.51
2017-12-28T03:40:55.825Z,982.54
2017-12-28T03:42:05.771Z,982.57
2017-12-28T03:43:15.724Z,982.48
2017-12-28T03:44:25.688Z,982.48
2017-12-28T03:45:35.390Z,982.51
2017-12-28T03:46:45.333Z,982.42
2017-12-28T03:47:55.273Z,982.44
2017-12-28T03:49:05.225Z,982.38
2017-12-28T03:50:15.162Z,982.39
2017-12-28T03:51:25.102Z,982.44
2017-12-28T03:52:35.039Z,982.44
2017-12-28T03:53:44.723Z,982.49
2017-12-28T03:54:54.676Z,982.47
2017-12-28T03:56:04.353Z,982.49
2017-12-28T03:57:13.793Z,982.49
2017-12-28T03:58:23.729Z,982.56
2017-12-28T03:59:33.675Z,982.53
2017-12-28T04:00:43.613Z,982.58
2017-12-28T04:01:53.543Z,982.54
2017-12-28T04:03:03.477Z,982.54
2017-12-28T04:04:13.422Z,982.51
2017-12-28T04:05:23.102Z,982.58
2017-12-28T04:06:32.801Z,982.53
2017-12-28T04:07:42.736Z,982.58
2017-12-28T04:08:52.432Z,982.56
2017-12-28T04:10:02.119Z,982.59
2017-12-28T04:11:12.055Z,982.59
2017-12-28T04:12:21.987Z,982.62
2017-12-28T04:13:31.929Z,982.59
2017-12-28T04:14:41.357Z,982.65
2017-12-28T04:15:51.313Z,982.7
2017-12-28T04:17:01.257Z,982.72
2017-12-28T04:18:10.957Z,982.74
2017-12-28T04:19:20.900Z,982.74
2017-12-28T04:20:30.842Z,982.74
2017-12-28T04:21:40.789Z,982.78
2017-12-28T04:22:50.730Z,982.78
2017-12-28T04:24:00.679Z,982.81
2017-12-28T04:25:10.611Z,982.79
2017-12-28T04:26:20.787Z,982.83
2017-12-28T04:27:30.743Z,982.8
2017-12-28T04:28:40.690Z,982.78
2017-12-28T04:29:50.384Z,982.79
2017-12-28T04:31:00.328Z,982.81
2017-12-28T04:32:10.018Z,982.83
2017-12-28T04:33:19.956Z,982.82
2017-12-28T04:34:29.888Z,982.74
2017-12-28T04:35:39.842Z,982.74
2017-12-28T04:36:49.537Z,982.76
2017-12-28T04:37:59.479Z,982.73
2017-12-28T04:39:09.164Z,982.79
2017-12-28T04:40:19.105Z,982.75
2017-12-28T04:41:29.047Z,982.79
2017-12-28T04:42:38.982Z,982.79
2017-12-28T04:43:48.919Z,982.8
2017-12-28T04:44:58.874Z,982.79
2017-12-28T04:46:08.808Z,982.86
2017-12-28T04:47:18.752Z,982.85
2017-12-28T04:48:28.700Z,982.9
2017-12-28T04:49:38.385Z,982.89
2017-12-28T04:50:48.323Z,982.86
2017-12-28T04:51:58.017Z,982.91
2017-12-28T04:53:07.695Z,982.86
2017-12-28T04:54:17.634Z,982.91
2017-12-28T04:55:27.564Z,982.9
2017-12-28T04:56:37.508Z,982.95
2017-12-28T04:57:47.456Z,982.92
2017-12-28T04:58:57.136Z,982.93
2017-12-28T05:00:06.851Z,982.89
2017-12-28T05:01:16.544Z,982.9
2017-12-28T05:02:26.228Z,982.9
2017-12-28T05:03:35.926Z,982.91
2017-12-28T05:04:45.864Z,982.97
2017-12-28T05:05:55.291Z,982.98
2017-12-28T05:07:05.229Z,982.99
2017-12-28T05:08:14.928Z,983.05
2017-12-28T05:09:24.615Z,983.03
2017-12-28T05:10:34.554Z,983.03
2017-12-28T05:11:44.500Z,982.97
2017-12-28T05:12:54.183Z,982.99
2017-12-28T05:14:03.874Z,982.98
2017-12-28T05:15:13.815Z,983.04
2017-12-28T05:16:23.759Z,983.07
2017-12-28T05:17:33.712Z,983.05
2017-12-28T05:18:43.649Z,983.02
2017-12-28T05:19:53.342Z,983.03
2017-12-28T05:21:03.287Z,983.02
2017-12-28T05:22:12.981Z,983.07
2017-12-28T05:23:22.925Z,983.05
2017-12-28T05:24:32.869Z,983.12
2017-12-28T05:25:42.818Z,983.16
2017-12-28T05:26:52.758Z,983.1
2017-12-28T05:28:02.443Z,983.09
2017-12-28T05:29:12.375Z,983.12
2017-12-28T05:30:22.308Z,983.11
2017-12-28T05:31:31.988Z,983.16
2017-12-28T05:32:41.829Z,983.15
2017-12-28T05:33:51.774Z,983.09
2017-12-28T05:35:01.716Z,983.12
2017-12-28T05:36:11.448Z,983.16
2017-12-28T05:37:21.395Z,983.17
2017-12-28T05:38:31.386Z,983.18
2017-12-28T05:39:41.322Z,983.21
2017-12-28T05:40:51.013Z,983.21
2017-12-28T05:42:00.951Z,983.19
2017-12-28T05:43:10.891Z,983.27
2017-12-28T05:44:20.322Z,983.28
2017-12-28T05:45:30.279Z,983.31
2017-12-28T05:46:40.223Z,983.28
2017-12-28T05:47:49.926Z,983.32
2017-12-28T05:49:00.087Z,983.25
2017-12-28T05:50:10.034Z,983.31
2017-12-28T05:51:19.717Z,983.36
2017-12-28T05:52:29.650Z,983.43
2017-12-28T05:53:39.326Z,983.41
2017-12-28T05:54:49.267Z,983.44
2017-12-28T05:55:58.957Z,983.45
2017-12-28T05:57:08.650Z,983.47
2017-12-28T05:58:18.092Z,983.46
2017-12-28T05:59:28.043Z,983.49
2017-12-28T06:00:37.999Z,983.44
2017-12-28T06:01:47.690Z,983.48
2017-12-28T06:02:57.629Z,983.47
2017-12-28T06:04:07.600Z,983.47
2017-12-28T06:05:17.562Z,983.5
2017-12-28T06:06:27.498Z,983.54
2017-12-28T06:07:36.932Z,983.55
2017-12-28T06:08:46.908Z,983.56
2017-12-28T06:09:56.347Z,983.59
2017-12-28T06:11:06.286Z,983.6
2017-12-28T06:12:16.424Z,983.58
2017-12-28T06:13:26.107Z,983.6
2017-12-28T06:14:35.552Z,983.63
2017-12-28T06:15:45.248Z,983.66
2017-12-28T06:16:55.200Z,983.7
2017-12-28T06:18:05.155Z,983.64
2017-12-28T06:19:15.102Z,983.62
2017-12-28T06:20:25.045Z,983.64
2017-12-28T06:21:34.979Z,983.65
2017-12-28T06:22:44.676Z,983.63
2017-12-28T06:23:54.619Z,983.64
2017-12-28T06:25:04.320Z,983.71
2017-12-28T06:26:14.266Z,983.72
2017-12-28T06:27:23.692Z,983.72
2017-12-28T06:28:33.385Z,983.76
2017-12-28T06:29:43.329Z,983.79
2017-12-28T06:30:53.269Z,983.82
2017-12-28T06:32:02.962Z,983.81
2017-12-28T06:33:12.636Z,983.81
2017-12-28T06:34:22.582Z,983.84
2017-12-28T06:35:32.521Z,983.79
2017-12-28T06:36:42.470Z,983.82
2017-12-28T06:37:52.164Z,983.83
2017-12-28T06:39:01.855Z,983.86
2017-12-28T06:40:11.559Z,983.89
2017-12-28T06:41:21.513Z,983.92
2017-12-28T06:42:31.455Z,983.94
2017-12-28T06:43:40.890Z,983.97
2017-12-28T06:44:50.830Z,983.97
2017-12-28T06:46:00.770Z,983.92
2017-12-28T06:47:10.459Z,983.94
2017-12-28T06:48:20.450Z,983.94
2017-12-28T06:49:30.387Z,983.97
2017-12-28T06:50:40.344Z,984
2017-12-28T06:51:50.025Z,983.98
2017-12-28T06:52:59.705Z,984
2017-12-28T06:54:09.391Z,983.99
2017-12-28T06:55:19.343Z,984.05
2017-12-28T06:56:29.018Z,984.06
2017-12-28T06:57:38.965Z,984.09
2017-12-28T06:58:48.932Z,984.08
2017-12-28T06:59:58.908Z,984.09
2017-12-28T07:01:08.594Z,984.05
2017-12-28T07:02:18.565Z,984.06
2017-12-28T07:03:27.996Z,984.1
2017-12-28T07:04:37.942Z,984.1
2017-12-28T07:05:47.890Z,984.19
2017-12-28T07:06:57.579Z,984.18
2017-12-28T07:08:07.262Z,984.29
2017-12-28T07:09:17.209Z,984.28
2017-12-28T07:10:27.148Z,984.32
2017-12-28T07:11:36.848Z,984.35
2017-12-28T07:12:46.779Z,984.42
2017-12-28T07:13:56.452Z,984.41
2017-12-28T07:15:06.393Z,984.35
2017-12-28T07:16:16.357Z,984.3
2017-12-28T07:17:26.305Z,984.28
2017-12-28T07:18:36.241Z,984.29
2017-12-28T07:19:46.187Z,984.36
2017-12-28T07:20:56.128Z,984.41
2017-12-28T07:22:06.064Z,984.46
2017-12-28T07:23:16.010Z,984.48
2017-12-28T07:24:25.968Z,984.54
2017-12-28T07:25:35.931Z,984.55
2017-12-28T07:26:45.928Z,984.54
2017-12-28T07:27:55.889Z,984.56
2017-12-28T07:29:05.843Z,984.55
2017-12-28T07:30:15.529Z,984.57
2017-12-28T07:31:25.483Z,984.53
2017-12-28T07:32:35.425Z,984.51
2017-12-28T07:33:45.371Z,984.56
2017-12-28T07:34:55.309Z,984.51
2017-12-28T07:36:05.284Z,984.48
2017-12-28T07:37:15.235Z,984.44
2017-12-28T07:38:25.165Z,984.43
2017-12-28T07:39:35.361Z,984.4
2017-12-28T07:40:44.800Z,984.45
2017-12-28T07:41:54.746Z,984.42
2017-12-28T07:43:04.723Z,984.49
2017-12-28T07:44:14.169Z,984.46
2017-12-28T07:45:23.888Z,984.46
2017-12-28T07:46:33.830Z,984.46
2017-12-28T07:47:43.513Z,984.42
2017-12-28T07:48:53.188Z,984.47
2017-12-28T07:50:03.151Z,984.45
2017-12-28T07:51:12.838Z,984.5
2017-12-28T07:52:22.270Z,984.48
2017-12-28T07:53:32.219Z,984.47
2017-12-28T07:54:42.172Z,984.48
2017-12-28T07:55:52.116Z,984.5
2017-12-28T07:57:02.076Z,984.55
2017-12-28T07:58:11.762Z,984.6
2017-12-28T07:59:21.719Z,984.59
2017-12-28T08:00:31.150Z,984.59
2017-12-28T08:01:41.088Z,984.61
2017-12-28T08:02:50.786Z,984.57
2017-12-28T08:04:00.740Z,984.55
2017-12-28T08:05:10.171Z,984.57
2017-12-28T08:06:20.108Z,984.64
2017-12-28T08:07:30.043Z,984.59
2017-12-28T08:08:39.218Z,984.63
2017-12-28T08:09:48.908Z,984.64
2017-12-28T08:10:58.593Z,984.7
2017-12-28T08:12:08.531Z,984.69
2017-12-28T08:13:18.483Z,984.67
2017-12-28T08:14:28.183Z,984.68
2017-12-28T08:15:38.133Z,984.66
2017-12-28T08:16:47.834Z,984.7
2017-12-28T08:17:57.799Z,984.69
2017-12-28T08:19:07.244Z,984.7
2017-12-28T08:20:17.199Z,984.77
2017-12-28T08:21:26.885Z,984.87
2017-12-28T08:22:36.571Z,984.83
2017-12-28T08:23:46.251Z,984.91
2017-12-28T08:24:55.933Z,984.86
2017-12-28T08:26:05.946Z,984.86
2017-12-28T08:27:15.894Z,984.86
2017-12-28T08:28:25.835Z,984.95
2017-12-28T08:29:35.526Z,984.92
2017-12-28T08:30:45.489Z,984.9
2017-12-28T08:31:55.426Z,984.93
2017-12-28T08:33:05.418Z,984.95
2017-12-28T08:34:15.377Z,985
2017-12-28T08:35:25.068Z,985.03
2017-12-28T08:36:35.065Z,985.07
2017-12-28T08:37:45.006Z,985.03
2017-12-28T08:38:54.701Z,985.02
2017-12-28T08:40:04.394Z,985.06
2017-12-28T08:41:14.078Z,985.11
2017-12-28T08:42:23.770Z,985.06
2017-12-28T08:43:33.724Z,985.13
2017-12-28T08:44:43.663Z,985.08
2017-12-28T08:45:53.607Z,985.18
2017-12-28T08:47:03.587Z,985.17
2017-12-28T08:48:13.268Z,985.1
2017-12-28T08:49:23.242Z,985.13
2017-12-28T08:50:33.211Z,985.15
2017-12-28T08:51:43.163Z,985.25
2017-12-28T08:52:53.115Z,985.23
2017-12-28T08:54:03.049Z,985.24
2017-12-28T08:55:12.739Z,985.23
2017-12-28T08:56:22.434Z,985.29
2017-12-28T08:57:32.163Z,985.31
2017-12-28T08:58:41.862Z,985.35
2017-12-28T08:59:51.796Z,985.33
2017-12-28T09:01:01.485Z,985.33
2017-12-28T09:02:11.430Z,985.31
2017-12-28T09:03:21.392Z,985.41
2017-12-28T09:04:31.360Z,985.34
2017-12-28T09:05:41.301Z,985.35
2017-12-28T09:06:50.997Z,985.37
2017-12-28T09:08:00.752Z,985.38
2017-12-28T09:09:10.732Z,985.42
2017-12-28T09:10:20.424Z,985.43
2017-12-28T09:11:30.370Z,985.54
2017-12-28T09:12:40.314Z,985.49
2017-12-28T09:13:50.274Z,985.52
2017-12-28T09:14:59.708Z,985.59
2017-12-28T09:16:09.664Z,985.58
2017-12-28T09:17:19.605Z,985.63
2017-12-28T09:18:29.543Z,985.68
2017-12-28T09:19:39.501Z,985.7
2017-12-28T09:20:49.187Z,985.74
2017-12-28T09:21:58.876Z,985.74
2017-12-28T09:23:08.826Z,985.75
2017-12-28T09:24:18.535Z,985.73
2017-12-28T09:25:28.232Z,985.77
2017-12-28T09:26:38.182Z,985.79
2017-12-28T09:27:48.143Z,985.77
2017-12-28T09:28:58.077Z,985.8
2017-12-28T09:30:07.770Z,985.75
2017-12-28T09:31:17.725Z,985.74
2017-12-28T09:32:27.414Z,985.72
2017-12-28T09:33:37.350Z,985.73
2017-12-28T09:34:47.293Z,985.77
2017-12-28T09:35:56.980Z,985.86
2017-12-28T09:37:06.676Z,985.74
2017-12-28T09:38:16.627Z,985.86
2017-12-28T09:39:26.565Z,985.78
2017-12-28T09:40:36.245Z,985.83
2017-12-28T09:41:46.199Z,985.83
2017-12-28T09:42:56.149Z,985.83
2017-12-28T09:44:05.833Z,985.87
2017-12-28T09:45:15.520Z,985.78
2017-12-28T09:46:25.199Z,985.78
2017-12-28T09:47:35.141Z,985.79
2017-12-28T09:48:44.341Z,985.87
2017-12-28T09:49:54.041Z,985.86
2017-12-28T09:51:04.014Z,985.82
2017-12-28T09:52:13.970Z,985.79
2017-12-28T09:53:23.929Z,985.87
2017-12-28T09:54:33.631Z,985.92
2017-12-28T09:55:43.610Z,985.85
2017-12-28T09:56:53.568Z,985.78
2017-12-28T09:58:03.522Z,985.82
2017-12-28T09:59:13.468Z,985.93
2017-12-28T10:00:23.443Z,985.93
2017-12-28T10:01:33.130Z,985.96
2017-12-28T10:02:42.831Z,986.01
2017-12-28T10:03:52.261Z,986.09
2017-12-28T10:05:01.955Z,986.03
2017-12-28T10:06:11.912Z,986.01
2017-12-28T10:07:21.880Z,986.16
2017-12-28T10:08:31.570Z,985.97
2017-12-28T10:09:41.518Z,985.94
2017-12-28T10:10:51.464Z,985.96
2017-12-28T10:12:01.413Z,985.97
2017-12-28T10:13:11.365Z,986.06
2017-12-28T10:14:21.340Z,985.95
2017-12-28T10:15:31.281Z,986.1
2017-12-28T10:16:40.739Z,986
2017-12-28T10:17:50.748Z,986.01
2017-12-28T10:19:00.731Z,986.14
2017-12-28T10:20:10.674Z,985.99
2017-12-28T10:21:20.635Z,986.28
2017-12-28T10:22:30.334Z,986.08
2017-12-28T10:23:40.287Z,986.2
2017-12-28T10:24:50.235Z,986.13
2017-12-28T10:26:00.204Z,986.12
2017-12-28T10:27:09.899Z,986.14
2017-12-28T10:28:19.836Z,986.2
2017-12-28T10:29:29.554Z,986.11
2017-12-28T10:30:39.516Z,986.19
2017-12-28T10:31:49.474Z,986.17
2017-12-28T10:32:59.426Z,986.15
2017-12-28T10:34:09.402Z,986.22
2017-12-28T10:35:19.344Z,986.2
2017-12-28T10:36:29.278Z,986.18
2017-12-28T10:37:39.255Z,986.19
2017-12-28T10:38:49.198Z,986.2
2017-12-28T10:39:59.135Z,986.23
2017-12-28T10:41:09.090Z,986.27
2017-12-28T10:42:19.048Z,986.25
2017-12-28T10:43:28.744Z,986.38
2017-12-28T10:44:38.446Z,986.3
2017-12-28T10:45:48.403Z,986.26
2017-12-28T10:46:58.102Z,986.34
2017-12-28T10:48:07.791Z,986.27
2017-12-28T10:49:17.770Z,986.25
2017-12-28T10:50:27.465Z,986.21
2017-12-28T10:51:37.408Z,986.16
2017-12-28T10:52:47.378Z,986.28
2017-12-28T10:53:57.081Z,986.3
2017-12-28T10:55:07.026Z,986.33
2017-12-28T10:56:16.978Z,986.33
2017-12-28T10:57:26.930Z,986.32
2017-12-28T10:58:36.879Z,986.27
2017-12-28T10:59:46.837Z,986.3
2017-12-28T11:00:56.781Z,986.31
2017-12-28T11:02:06.732Z,986.41
2017-12-28T11:03:16.178Z,986.29
2017-12-28T11:04:26.137Z,986.41
2017-12-28T11:05:36.086Z,986.33
2017-12-28T11:06:46.037Z,986.28
2017-12-28T11:07:55.995Z,986.31
2017-12-28T11:09:05.958Z,986.41
2017-12-28T11:10:15.888Z,986.49
2017-12-28T11:11:25.586Z,986.47
2017-12-28T11:12:35.557Z,986.51
2017-12-28T11:13:45.514Z,986.5
2017-12-28T11:14:55.209Z,986.33
2017-12-28T11:16:05.168Z,986.54
2017-12-28T11:17:14.871Z,986.59
2017-12-28T11:18:24.823Z,986.61
2017-12-28T11:19:34.770Z,986.65
2017-12-28T11:20:44.745Z,986.62
2017-12-28T11:21:54.691Z,986.7
2017-12-28T11:23:04.631Z,986.61
2017-12-28T11:24:14.582Z,986.6
2017-12-28T11:25:24.522Z,986.65
2017-12-28T11:26:34.206Z,986.63
2017-12-28T11:27:43.920Z,986.6
2017-12-28T11:28:53.610Z,986.58
2017-12-28T11:30:03.316Z,986.55
2017-12-28T11:31:13.259Z,986.61
2017-12-28T11:32:23.218Z,986.63
2017-12-28T11:33:33.162Z,986.61
2017-12-28T11:34:43.106Z,986.64
2017-12-28T11:35:52.339Z,986.67
2017-12-28T11:37:02.034Z,986.73
2017-12-28T11:38:12.011Z,986.69
2017-12-28T11:39:21.710Z,986.74
2017-12-28T11:40:31.654Z,986.84
2017-12-28T11:41:41.346Z,986.76
2017-12-28T11:42:51.034Z,986.74
2017-12-28T11:44:00.718Z,986.69
2017-12-28T11:45:10.182Z,986.68
2017-12-28T11:46:20.125Z,986.73
2017-12-28T11:47:30.069Z,986.75
2017-12-28T11:48:39.741Z,986.69
2017-12-28T11:49:49.426Z,986.68
2017-12-28T11:50:59.375Z,986.63
2017-12-28T11:52:09.309Z,986.66
2017-12-28T11:53:19.266Z,986.85
2017-12-28T11:54:29.219Z,986.74
2017-12-28T11:55:38.940Z,986.82
2017-12-28T11:56:48.633Z,986.76
2017-12-28T11:57:58.330Z,986.82
2017-12-28T11:59:07.509Z,986.76
2017-12-28T12:00:17.455Z,986.78
2017-12-28T12:01:27.393Z,986.76
2017-12-28T12:02:37.545Z,986.79
2017-12-28T12:03:47.497Z,986.79
2017-12-28T12:04:56.931Z,986.79
2017-12-28T12:06:06.668Z,986.87
2017-12-28T12:07:16.619Z,986.91
2017-12-28T12:08:26.294Z,986.83
2017-12-28T12:09:36.232Z,986.89
2017-12-28T12:10:46.201Z,986.97
2017-12-28T12:11:56.139Z,987
2017-12-28T12:13:06.091Z,986.99
2017-12-28T12:14:15.782Z,986.98
2017-12-28T12:15:25.744Z,987.01
2017-12-28T12:16:35.468Z,987.05
2017-12-28T12:17:45.410Z,987.02
2017-12-28T12:18:55.345Z,987.04
2017-12-28T12:20:05.296Z,987.02
2017-12-28T12:21:15.253Z,987.04
2017-12-28T12:22:25.190Z,986.91
2017-12-28T12:23:35.125Z,986.92
2017-12-28T12:24:45.078Z,987
2017-12-28T12:25:55.040Z,986.97
2017-12-28T12:27:04.990Z,987.11
2017-12-28T12:28:14.670Z,987.08
2017-12-28T12:29:24.365Z,987.11
2017-12-28T12:30:34.321Z,987.12
2017-12-28T12:31:44.266Z,986.96
2017-12-28T12:32:54.232Z,987.03
2017-12-28T12:34:04.162Z,987.1
2017-12-28T12:35:14.130Z,987.12
2017-12-28T12:36:24.084Z,987.12
2017-12-28T12:37:34.053Z,987.3
2017-12-28T12:38:43.991Z,987.23
2017-12-28T12:39:53.926Z,987.12
2017-12-28T12:41:03.877Z,987.11
2017-12-28T12:42:13.827Z,987.12
2017-12-28T12:43:23.775Z,987.17
2017-12-28T12:44:33.731Z,987.17
2017-12-28T12:45:43.671Z,987.26
2017-12-28T12:46:53.619Z,987.19
2017-12-28T12:48:03.321Z,987.31
2017-12-28T12:49:12.750Z,987.31
2017-12-28T12:50:22.439Z,987.36
2017-12-28T12:51:31.862Z,987.55
2017-12-28T12:52:41.545Z,987.45
2017-12-28T12:53:51.485Z,987.37
2017-12-28T12:55:01.430Z,987.42
2017-12-28T12:56:11.394Z,987.37
2017-12-28T12:57:21.083Z,987.55
2017-12-28T12:58:30.769Z,987.49
2017-12-28T12:59:40.206Z,987.59
2017-12-28T13:00:50.158Z,987.62
2017-12-28T13:02:00.107Z,987.55
2017-12-28T13:03:10.062Z,987.58
2017-12-28T13:04:19.759Z,987.62
2017-12-28T13:05:29.715Z,987.59
2017-12-28T13:06:39.670Z,987.68
2017-12-28T13:07:49.634Z,987.69
2017-12-28T13:08:59.579Z,987.65
2017-12-28T13:10:09.278Z,987.69
2017-12-28T13:11:19.242Z,987.79
2017-12-28T13:12:28.926Z,987.73
2017-12-28T13:13:38.881Z,987.69
2017-12-28T13:14:48.568Z,987.69
2017-12-28T13:15:58.253Z,987.89
2017-12-28T13:17:08.226Z,987.75
2017-12-28T13:18:18.228Z,987.9
2017-12-28T13:19:27.915Z,988.03
2017-12-28T13:20:37.606Z,987.95
2017-12-28T13:21:47.560Z,987.89
2017-12-28T13:22:57.523Z,987.97
2017-12-28T13:24:07.473Z,988.04
2017-12-28T13:25:17.422Z,988.04
2017-12-28T13:26:27.478Z,988.14
2017-12-28T13:27:37.165Z,988
2017-12-28T13:28:46.851Z,987.98
2017-12-28T13:29:56.801Z,988.04
2017-12-28T13:31:06.763Z,988.21
2017-12-28T13:32:16.196Z,988.01
2017-12-28T13:33:25.901Z,988.2
2017-12-28T13:34:35.596Z,988.11
2017-12-28T13:35:45.299Z,988.16
2017-12-28T13:36:55.234Z,988.42
2017-12-28T13:38:04.938Z,988.24
2017-12-28T13:39:14.633Z,988.31
2017-12-28T13:40:24.592Z,988.26
2017-12-28T13:41:34.534Z,988.24
2017-12-28T13:42:44.473Z,988.39
2017-12-28T13:43:54.441Z,988.33
2017-12-28T13:45:04.394Z,988.32
2017-12-28T13:46:14.344Z,988.48
2017-12-28T13:47:24.024Z,988.4
2017-12-28T13:48:33.973Z,988.47
2017-12-28T13:49:43.916Z,988.46
2017-12-28T13:50:53.611Z,988.58
2017-12-28T13:52:03.302Z,988.57
2017-12-28T13:53:13.244Z,988.54
2017-12-28T13:54:23.195Z,988.59
2017-12-28T13:55:33.149Z,988.64
2017-12-28T13:56:42.606Z,988.63
2017-12-28T13:57:52.559Z,988.73
2017-12-28T13:59:02.502Z,988.68
2017-12-28T14:00:12.454Z,988.7
2017-12-28T14:01:21.884Z,988.77
2017-12-28T14:02:31.833Z,988.84
2017-12-28T14:03:41.770Z,988.83
2017-12-28T14:04:51.215Z,988.8
2017-12-28T14:06:00.901Z,988.89
2017-12-28T14:07:10.867Z,989
2017-12-28T14:08:20.826Z,988.97
2017-12-28T14:09:30.523Z,988.96
2017-12-28T14:10:40.228Z,989
2017-12-28T14:11:50.184Z,989.03
2017-12-28T14:13:00.125Z,988.97
2017-12-28T14:14:10.069Z,989.01
2017-12-28T14:15:20.009Z,989.05
2017-12-28T14:16:29.697Z,988.98
2017-12-28T14:17:39.646Z,989.09
2017-12-28T14:18:49.582Z,989.13
2017-12-28T14:19:59.322Z,989.22
2017-12-28T14:21:09.289Z,989.19
2017-12-28T14:22:19.242Z,989.24
2017-12-28T14:23:28.930Z,989.18
2017-12-28T14:24:38.622Z,989.22
2017-12-28T14:25:48.582Z,989.25
2017-12-28T14:26:58.283Z,989.22
2017-12-28T14:28:08.253Z,989.19
2017-12-28T14:29:18.193Z,989.27
2017-12-28T14:30:27.890Z,989.33
2017-12-28T14:31:37.885Z,989.35
2017-12-28T14:32:47.828Z,989.33
2017-12-28T14:33:57.785Z,989.39
2017-12-28T14:35:07.726Z,989.45